Terminal Aerodrome Forecast
Issued by NWS

Home | Current Version | Previous Version | Text Only | Print | Product List | Glossary On
Versions: 1 2 3 4 5 6 7 8 9 10 11 12
000
FTUS43 KOAX 022320
TAFBFF
TAF
KBFF 022320Z 0300/0324 VRB05KT P6SM OVC100
     FM031000 25006KT P6SM SCT120 SCT250
     FM031700 29015G22KT P6SM BKN120 BKN250=

USA.gov is the U.S. government's official web portal to all federal, state and local government web resources and services.